Twinsburg, Ohio
Current Conditions -  °F | °C
As of 2:18 AM on Saturday 25 Oct 2014 (Local Time) from KPOV Reporting Station
Overcast Overcast  
Wind Chill: 47°   Ceiling: 4400
Heat Index: 47°   Visibility: 10mi
Dew Point: 43°   Wind: 0mph
Humidity: 86%   Direction: NA
Pressure: 29.97"   Gusts: NA
Location:  41.31°N, 81.44°W
Report Text: KPOV 250618Z AUTO 00000KT 10SM OVC044 08/06 A2997 RMK AO2 T00830061
Loading
Personal Weather Stations






























Interactive Weather Map
Tropical Storm Tracking
New forecast layout! Learn more

10-Day Weather Forecast

Advertisements
Track Severe Weather on mobile